sensor_id;sensor_type;location;lat;lon;timestamp;temperature;humidity
43414;DHT22;73638;49.676;8.606;2024-03-08T00:01:07;8.1342;55.1278
43414;DHT22;73638;49.676;8.606;2024-03-08T00:06:13;8.0941;55.4101
43414;DHT22;73638;49.676;8.606;2024-03-08T00:11:20;8.0781;55.3735
43414;DHT22;73638;49.676;8.606;2024-03-08T00:16:26;8.0861;55.3491
43414;DHT22;73638;49.676;8.606;2024-03-08T00:21:33;7.982;55.5581
43414;DHT22;73638;49.676;8.606;2024-03-08T00:26:40;8.0034;55.4955
43414;DHT22;73638;49.676;8.606;2024-03-08T00:31:47;7.8832;55.7671
43414;DHT22;73638;49.676;8.606;2024-03-08T00:36:53;7.8351;55.4711
43414;DHT22;73638;49.676;8.606;2024-03-08T00:42:00;7.731;55.9136
43414;DHT22;73638;49.676;8.606;2024-03-08T00:47:11;7.5895;55.8282
43414;DHT22;73638;49.676;8.606;2024-03-08T00:52:13;7.7443;55.7412
43414;DHT22;73638;49.676;8.606;2024-03-08T00:57:20;7.4639;56.0616
43414;DHT22;73638;49.676;8.606;2024-03-08T01:02:26;7.4506;56.0494
43414;DHT22;73638;49.676;8.606;2024-03-08T01:07:33;7.1782;56.1349
43414;DHT22;73638;49.676;8.606;2024-03-08T01:12:39;7.2129;56.1837
43414;DHT22;73638;49.676;8.606;2024-03-08T01:17:46;7.221;56.2585
43414;DHT22;73638;49.676;8.606;2024-03-08T01:22:53;7.0447;56.0616
43414;DHT22;73638;49.676;8.606;2024-03-08T01:27:59;7.1302;56.1715
43414;DHT22;73638;49.676;8.606;2024-03-08T01:33:05;7.0794;56.5408
43414;DHT22;73638;49.676;8.606;2024-03-08T01:38:12;6.9326;56.4294
43414;DHT22;73638;49.676;8.606;2024-03-08T01:43:19;6.9059;56.614
43414;DHT22;73638;49.676;8.606;2024-03-08T01:48:26;6.8765;56.9467
43414;DHT22;73638;49.676;8.606;2024-03-08T01:53:31;6.7029;57.2351
43414;DHT22;73638;49.676;8.606;2024-03-08T01:58:40;6.7803;57.2473
43414;DHT22;73638;49.676;8.606;2024-03-08T02:03:46;6.4946;57.9477
43414;DHT22;73638;49.676;8.606;2024-03-08T02:08:52;6.5507;57.641
43414;DHT22;73638;49.676;8.606;2024-03-08T02:13:58;6.3611;57.9736
43414;DHT22;73638;49.676;8.606;2024-03-08T02:19:04;6.3691;58.5138
43414;DHT22;73638;49.676;8.606;2024-03-08T02:24:11;6.3825;58.0835
43414;DHT22;73638;49.676;8.606;2024-03-08T02:29:18;6.5988;57.7523
43414;DHT22;73638;49.676;8.606;2024-03-08T02:34:24;6.4946;57.8866
43414;DHT22;73638;49.676;8.606;2024-03-08T02:39:31;6.6548;57.5677
43414;DHT22;73638;49.676;8.606;2024-03-08T02:44:42;6.8978;57.3022
43414;DHT22;73638;49.676;8.606;2024-03-08T02:49:45;6.8925;57.0932
43414;DHT22;73638;49.676;8.606;2024-03-08T02:54:51;7.0527;57.1801
43414;DHT22;73638;49.676;8.606;2024-03-08T02:59:58;6.9966;57.0199
43414;DHT22;73638;49.676;8.606;2024-03-08T03:05:05;7.0661;56.7132
43414;DHT22;73638;49.676;8.606;2024-03-08T03:10:11;7.0394;57.142
43414;DHT22;73638;49.676;8.606;2024-03-08T03:15:18;6.8711;56.9955
43414;DHT22;73638;49.676;8.606;2024-03-08T03:20:24;7.01;56.9345
43414;DHT22;73638;49.676;8.606;2024-03-08T03:25:31;6.8364;56.8109
43414;DHT22;73638;49.676;8.606;2024-03-08T03:30:38;6.6949;57.4807
43414;DHT22;73638;49.676;8.606;2024-03-08T03:35:44;6.7029;57.7142
43414;DHT22;73638;49.676;8.606;2024-03-08T03:40:51;6.6762;57.9355
43414;DHT22;73638;49.676;8.606;2024-03-08T03:45:57;6.6121;58.0468
43414;DHT22;73638;49.676;8.606;2024-03-08T03:51:04;6.8498;57.5967
43414;DHT22;73638;49.676;8.606;2024-03-08T03:56:11;6.6255;58.0713
43414;DHT22;73638;49.676;8.606;2024-03-08T04:01:18;6.6762;57.8866
43414;DHT22;73638;49.676;8.606;2024-03-08T04:06:24;6.6335;57.7142
43414;DHT22;73638;49.676;8.606;2024-03-08T04:11:31;6.3264;57.7401
43414;DHT22;73638;49.676;8.606;2024-03-08T04:16:37;6.2703;58.2681
43414;DHT22;73638;49.676;8.606;2024-03-08T04:21:43;6.054;58.2315
43414;DHT22;73638;49.676;8.606;2024-03-08T04:26:50;5.9899;58.3658
43414;DHT22;73638;49.676;8.606;2024-03-08T04:31:56;5.8297;58.4146
43414;DHT22;73638;49.676;8.606;2024-03-08T04:37:03;5.795;58.8571
43414;DHT22;73638;49.676;8.606;2024-03-08T04:42:15;5.8644;59.5575
43414;DHT22;73638;49.676;8.606;2024-03-08T04:47:16;6.0967;59.5331
43414;DHT22;73638;49.676;8.606;2024-03-08T04:52:22;5.9846;59.2874
43414;DHT22;73638;49.676;8.606;2024-03-08T04:57:29;5.9339;59.2264
43414;DHT22;73638;49.676;8.606;2024-03-08T05:02:36;6.0807;59.2142
43414;DHT22;73638;49.676;8.606;2024-03-08T05:07:42;6.0967;59.1028
43414;DHT22;73638;49.676;8.606;2024-03-08T05:12:49;6.2142;59.1028
43414;DHT22;73638;49.676;8.606;2024-03-08T05:17:55;6.2837;58.8815
43414;DHT22;73638;49.676;8.606;2024-03-08T05:23:02;6.0887;58.7961
43414;DHT22;73638;49.676;8.606;2024-03-08T05:28:08;6.0246;58.8571
43414;DHT22;73638;49.676;8.606;2024-03-08T05:33:14;5.8778;59.2264
43414;DHT22;73638;49.676;8.606;2024-03-08T05:38:21;5.9846;59.1775
43414;DHT22;73638;49.676;8.606;2024-03-08T05:43:27;5.7683;58.9685
43414;DHT22;73638;49.676;8.606;2024-03-08T05:48:34;5.6268;59.3744
43414;DHT22;73638;49.676;8.606;2024-03-08T05:53:40;5.4879;59.4842
43414;DHT22;73638;49.676;8.606;2024-03-08T05:58:46;5.5146;59.4965
43414;DHT22;73638;49.676;8.606;2024-03-08T06:03:53;5.5093;59.5209
43414;DHT22;73638;49.676;8.606;2024-03-08T06:08:59;5.4879;59.6445
43414;DHT22;73638;49.676;8.606;2024-03-08T06:14:06;5.293;59.7436
43414;DHT22;73638;49.676;8.606;2024-03-08T06:19:12;5.4105;59.9649
43414;DHT22;73638;49.676;8.606;2024-03-08T06:24:19;5.1167;60.235
43414;DHT22;73638;49.676;8.606;2024-03-08T06:29:25;5.3891;60.2594
43414;DHT22;73638;49.676;8.606;2024-03-08T06:34:32;5.3838;60.296
43414;DHT22;73638;49.676;8.606;2024-03-08T06:39:39;5.4585;61.0834
43414;DHT22;73638;49.676;8.606;2024-03-08T06:44:45;5.5493;60.8118
43414;DHT22;73638;49.676;8.606;2024-03-08T06:49:51;5.6054;60.824
43414;DHT22;73638;49.676;8.606;2024-03-08T06:54:58;5.8644;60.6882
43414;DHT22;73638;49.676;8.606;2024-03-08T07:00:06;6.1582;60.5783
43414;DHT22;73638;49.676;8.606;2024-03-08T07:05:12;6.313;60.148
43414;DHT22;73638;49.676;8.606;2024-03-08T07:10:18;6.3958;59.7787
43414;DHT22;73638;49.676;8.606;2024-03-08T07:15:25;6.3745;59.7055
43414;DHT22;73638;49.676;8.606;2024-03-08T07:20:32;6.4866;59.5453
43414;DHT22;73638;49.676;8.606;2024-03-08T07:25:40;6.5427;59.5209
43414;DHT22;73638;49.676;8.606;2024-03-08T07:30:46;6.7456;59.324
43414;DHT22;73638;49.676;8.606;2024-03-08T07:35:52;6.8711;58.9731
43414;DHT22;73638;49.676;8.606;2024-03-08T07:41:04;6.9673;58.764
43414;DHT22;73638;49.676;8.606;2024-03-08T07:46:05;6.9833;58.6664
43414;DHT22;73638;49.676;8.606;2024-03-08T07:51:12;7.1489;58.2483
43414;DHT22;73638;49.676;8.606;2024-03-08T07:56:19;7.1435;58.3474
43414;DHT22;73638;49.676;8.606;2024-03-08T08:01:25;7.1649;58.2483
43414;DHT22;73638;49.676;8.606;2024-03-08T08:06:32;7.261;58.5061
43414;DHT22;73638;49.676;8.606;2024-03-08T08:11:38;7.3384;58.3215
43414;DHT22;73638;49.676;8.606;2024-03-08T08:16:45;7.4773;58.3352
43414;DHT22;73638;49.676;8.606;2024-03-08T08:21:52;7.6242;58.5428
43414;DHT22;73638;49.676;8.606;2024-03-08T08:26:59;7.8832;58.1018
43414;DHT22;73638;49.676;8.606;2024-03-08T08:32:06;8.0381;57.8805
43414;DHT22;73638;49.676;8.606;2024-03-08T08:37:12;8.233;57.6257
43414;DHT22;73638;49.676;8.606;2024-03-08T08:42:19;8.3799;56.5438
43414;DHT22;73638;49.676;8.606;2024-03-08T08:47:29;8.2811;56.7163
43414;DHT22;73638;49.676;8.606;2024-03-08T08:52:33;8.4974;56.5072
43414;DHT22;73638;49.676;8.606;2024-03-08T08:57:39;8.5321;56.2737
43414;DHT22;73638;49.676;8.606;2024-03-08T09:02:46;8.679;56.3607
43414;DHT22;73638;49.676;8.606;2024-03-08T09:07:53;8.8899;55.9915
43414;DHT22;73638;49.676;8.606;2024-03-08T09:12:59;8.9246;55.697
43414;DHT22;73638;49.676;8.606;2024-03-08T09:18:06;9.1062;55.8556
43414;DHT22;73638;49.676;8.606;2024-03-08T09:23:13;9.1115;55.5001
43414;DHT22;73638;49.676;8.606;2024-03-08T09:28:20;9.2664;55.2422
43414;DHT22;73638;49.676;8.606;2024-03-08T09:33:26;9.2584;55.3521
43414;DHT22;73638;49.676;8.606;2024-03-08T09:38:33;9.3786;55.2544
43414;DHT22;73638;49.676;8.606;2024-03-08T09:43:40;9.4347;54.8608
43414;DHT22;73638;49.676;8.606;2024-03-08T09:48:46;9.2931;54.7631
43414;DHT22;73638;49.676;8.606;2024-03-08T09:53:53;9.3572;54.4305
43414;DHT22;73638;49.676;8.606;2024-03-08T09:59:00;9.3839;54.4549
43414;DHT22;73638;49.676;8.606;2024-03-08T10:04:07;9.5388;54.345
43414;DHT22;73638;49.676;8.606;2024-03-08T10:09:13;9.5655;54.4671
43414;DHT22;73638;49.676;8.606;2024-03-08T10:14:21;9.7845;54.2763
43414;DHT22;73638;49.676;8.606;2024-03-08T10:19:28;10.0008;53.6492
43414;DHT22;73638;49.676;8.606;2024-03-08T10:24:33;10.0568;53.1945
43414;DHT22;73638;49.676;8.606;2024-03-08T10:29:40;9.9928;53.1212
43414;DHT22;73638;49.676;8.606;2024-03-08T10:34:47;10.1476;53.5393
43414;DHT22;73638;49.676;8.606;2024-03-08T10:40:01;10.0835;53.4524
43414;DHT22;73638;49.676;8.606;2024-03-08T10:45:06;10.153;53.2692
43414;DHT22;73638;49.676;8.606;2024-03-08T10:50:10;10.2865;53.5271
43414;DHT22;73638;49.676;8.606;2024-03-08T10:55:14;10.4467;53.4157
43414;DHT22;73638;49.676;8.606;2024-03-08T11:00:21;10.5028;53.1701
43414;DHT22;73638;49.676;8.606;2024-03-08T11:05:32;10.6577;52.8511
43414;DHT22;73638;49.676;8.606;2024-03-08T11:10:46;10.6924;53.1823
43414;DHT22;73638;49.676;8.606;2024-03-08T11:15:41;10.6203;53.3791
43414;DHT22;73638;49.676;8.606;2024-03-08T11:20:48;10.7671;53.5515
43414;DHT22;73638;49.676;8.606;2024-03-08T11:25:55;11.0262;53.1502
43414;DHT22;73638;49.676;8.606;2024-03-08T11:31:23;11.125;52.3384
43414;DHT22;73638;49.676;8.606;2024-03-08T11:36:10;11.1597;52.5231
43414;DHT22;73638;49.676;8.606;2024-03-08T11:41:20;11.173;52.9046
43414;DHT22;73638;49.676;8.606;2024-03-08T11:46:24;11.2024;53.0755
43414;DHT22;73638;49.676;8.606;2024-03-08T11:51:29;11.2558;52.781
43414;DHT22;73638;49.676;8.606;2024-03-08T11:56:36;11.5282;52.5719
43414;DHT22;73638;49.676;8.606;2024-03-08T12:01:43;11.6751;52.0439
43414;DHT22;73638;49.676;8.606;2024-03-08T12:06:53;11.627;51.6991
43414;DHT22;73638;49.676;8.606;2024-03-08T12:11:59;11.878;52.0562
43414;DHT22;73638;49.676;8.606;2024-03-08T12:17:05;12.0329;51.3436
43414;DHT22;73638;49.676;8.606;2024-03-08T12:22:14;12.089;51.1589
43414;DHT22;73638;49.676;8.606;2024-03-08T12:27:19;11.9821;51.1467
43414;DHT22;73638;49.676;8.606;2024-03-08T12:32:26;12.0729;51.1589
43414;DHT22;73638;49.676;8.606;2024-03-08T12:37:32;12.4014;50.1564
43414;DHT22;73638;49.676;8.606;2024-03-08T12:42:39;12.3747;51.017
43414;DHT22;73638;49.676;8.606;2024-03-08T12:47:46;12.4922;50.7958
43414;DHT22;73638;49.676;8.606;2024-03-08T12:52:54;12.6177;50.8812
43414;DHT22;73638;49.676;8.606;2024-03-08T12:58:00;12.6337;50.6722
43414;DHT22;73638;49.676;8.606;2024-03-08T13:03:07;12.8767;50.956
43414;DHT22;73638;49.676;8.606;2024-03-08T13:08:14;12.9809;50.3532
43414;DHT22;73638;49.676;8.606;2024-03-08T13:13:21;12.9969;49.6895
43414;DHT22;73638;49.676;8.606;2024-03-08T13:18:27;12.8553;49.7627
43414;DHT22;73638;49.676;8.606;2024-03-08T13:23:34;12.9541;49.8741
43414;DHT22;73638;49.676;8.606;2024-03-08T13:28:41;13.1838;50.3044
43414;DHT22;73638;49.676;8.606;2024-03-08T13:33:48;13.1277;49.3584
43414;DHT22;73638;49.676;8.606;2024-03-08T13:38:54;13.101;49.0761
43414;DHT22;73638;49.676;8.606;2024-03-08T13:44:01;13.0449;49.395
43414;DHT22;73638;49.676;8.606;2024-03-08T13:49:08;13.1224;50.2174
43414;DHT22;73638;49.676;8.606;2024-03-08T13:54:15;13.2692;50.0465
43414;DHT22;73638;49.676;8.606;2024-03-08T13:59:22;13.4375;49.1981
43414;DHT22;73638;49.676;8.606;2024-03-08T14:04:29;13.3654;49.1005
43414;DHT22;73638;49.676;8.606;2024-03-08T14:09:36;13.4295;49.1981
43414;DHT22;73638;49.676;8.606;2024-03-08T14:14:42;13.5122;49.1005
43414;DHT22;73638;49.676;8.606;2024-03-08T14:19:49;13.555;48.4123
43414;DHT22;73638;49.676;8.606;2024-03-08T14:24:56;13.6725;48.7724
43414;DHT22;73638;49.676;8.606;2024-03-08T14:30:04;13.5897;49.1127
43414;DHT22;73638;49.676;8.606;2024-03-08T14:35:15;13.5977;49.4804
43414;DHT22;73638;49.676;8.606;2024-03-08T14:40:17;13.7633;49.2515
43414;DHT22;73638;49.676;8.606;2024-03-08T14:45:24;13.8407;49.0425
43414;DHT22;73638;49.676;8.606;2024-03-08T14:50:31;13.8487;49.2271
43414;DHT22;73638;49.676;8.606;2024-03-08T14:55:38;13.7579;48.3787
43414;DHT22;73638;49.676;8.606;2024-03-08T15:00:45;13.7018;48.7724
43414;DHT22;73638;49.676;8.606;2024-03-08T15:05:51;13.7446;48.5878
43414;DHT22;73638;49.676;8.606;2024-03-08T15:10:58;13.8834;48.5145
43414;DHT22;73638;49.676;8.606;2024-03-08T15:16:05;13.8914;48.6
43414;DHT22;73638;49.676;8.606;2024-03-08T15:21:12;13.8701;47.4449
43414;DHT22;73638;49.676;8.606;2024-03-08T15:26:18;13.806;48.0217
43414;DHT22;73638;49.676;8.606;2024-03-08T15:31:25;13.8407;47.985
43414;DHT22;73638;49.676;8.606;2024-03-08T15:36:32;13.814;47.9728
43414;DHT22;73638;49.676;8.606;2024-03-08T15:41:40;13.8701;47.8752
43414;DHT22;73638;49.676;8.606;2024-03-08T15:46:46;13.8834;47.4693
43414;DHT22;73638;49.676;8.606;2024-03-08T15:51:53;13.8407;47.7516
43414;DHT22;73638;49.676;8.606;2024-03-08T15:56:59;13.8273;47.7028
43414;DHT22;73638;49.676;8.606;2024-03-08T16:02:06;13.814;47.6173
43414;DHT22;73638;49.676;8.606;2024-03-08T16:07:13;13.7846;47.6173
43414;DHT22;73638;49.676;8.606;2024-03-08T16:12:20;13.7285;47.6905
43414;DHT22;73638;49.676;8.606;2024-03-08T16:17:27;13.6458;48.7556
43414;DHT22;73638;49.676;8.606;2024-03-08T16:22:33;13.603;47.8828
43414;DHT22;73638;49.676;8.606;2024-03-08T16:27:40;13.555;47.9332
43414;DHT22;73638;49.676;8.606;2024-03-08T16:32:47;13.4989;47.7729
43414;DHT22;73638;49.676;8.606;2024-03-08T16:37:54;13.4295;48.0186
43414;DHT22;73638;49.676;8.606;2024-03-08T16:43:00;13.2906;48.1544
43414;DHT22;73638;49.676;8.606;2024-03-08T16:48:08;12.9889;47.7363
43414;DHT22;73638;49.676;8.606;2024-03-08T16:53:14;12.8153;48.1788
43414;DHT22;73638;49.676;8.606;2024-03-08T16:58:25;12.6604;48.1666
43414;DHT22;73638;49.676;8.606;2024-03-08T17:03:27;12.4521;48.8167
43414;DHT22;73638;49.676;8.606;2024-03-08T17:08:33;12.0729;50.2007
43414;DHT22;73638;49.676;8.606;2024-03-08T17:13:40;11.7819;50.2129
43414;DHT22;73638;49.676;8.606;2024-03-08T17:18:46;11.424;50.901
43414;DHT22;73638;49.676;8.606;2024-03-08T17:23:53;11.2158;51.2078
43414;DHT22;73638;49.676;8.606;2024-03-08T17:29:00;11.1036;51.4656
43414;DHT22;73638;49.676;8.606;2024-03-08T17:34:06;11.0342;51.4778
43414;DHT22;73638;49.676;8.606;2024-03-08T17:39:13;10.8873;51.8685
43414;DHT22;73638;49.676;8.606;2024-03-08T17:44:19;10.8312;51.8685
43414;DHT22;73638;49.676;8.606;2024-03-08T17:49:26;10.6844;52.0516
43414;DHT22;73638;49.676;8.606;2024-03-08T17:54:33;10.5161;52.224
43414;DHT22;73638;49.676;8.606;2024-03-08T17:59:39;10.3346;52.6421
43414;DHT22;73638;49.676;8.606;2024-03-08T18:04:47;10.1663;52.0775
43414;DHT22;73638;49.676;8.606;2024-03-08T18:09:53;10.1663;52.3598
43414;DHT22;73638;49.676;8.606;2024-03-08T18:14:59;9.9847;52.9488
43414;DHT22;73638;49.676;8.606;2024-03-08T18:20:07;9.9447;52.4941
43414;DHT22;73638;49.676;8.606;2024-03-08T18:25:13;9.9447;52.4086
43414;DHT22;73638;49.676;8.606;2024-03-08T18:30:20;9.9928;51.9173
43414;DHT22;73638;49.676;8.606;2024-03-08T18:35:26;9.958;52.372
43414;DHT22;73638;49.676;8.606;2024-03-08T18:40:34;9.966;52.0394
43414;DHT22;73638;49.676;8.606;2024-03-08T18:45:40;9.95;51.7937
43414;DHT22;73638;49.676;8.606;2024-03-08T18:50:48;10.1263;50.9712
43414;DHT22;73638;49.676;8.606;2024-03-08T18:55:53;10.2171;50.8965
43414;DHT22;73638;49.676;8.606;2024-03-08T19:01:00;10.2571;50.3319
43414;DHT22;73638;49.676;8.606;2024-03-08T19:06:07;10.3078;50.4433
43414;DHT22;73638;49.676;8.606;2024-03-08T19:11:14;10.3346;50.1961
43414;DHT22;73638;49.676;8.606;2024-03-08T19:16:20;10.2651;50.074
43414;DHT22;73638;49.676;8.606;2024-03-08T19:21:29;10.2785;49.6315
43414;DHT22;73638;49.676;8.606;2024-03-08T19:26:38;10.3292;49.4347
43414;DHT22;73638;49.676;8.606;2024-03-08T19:31:39;10.2304;50.1106
43414;DHT22;73638;49.676;8.606;2024-03-08T19:36:46;10.1263;50.6508
43414;DHT22;73638;49.676;8.606;2024-03-08T19:41:52;9.958;50.8598
43414;DHT22;73638;49.676;8.606;2024-03-08T19:46:59;9.9928;50.8598
43414;DHT22;73638;49.676;8.606;2024-03-08T19:52:06;9.9928;50.6508
43414;DHT22;73638;49.676;8.606;2024-03-08T19:57:12;9.902;50.4921
43414;DHT22;73638;49.676;8.606;2024-03-08T20:02:20;9.8886;51.1055
43414;DHT22;73638;49.676;8.606;2024-03-08T20:07:26;9.8753;50.9834
43414;DHT22;73638;49.676;8.606;2024-03-08T20:12:33;9.6857;51.1681
43414;DHT22;73638;49.676;8.606;2024-03-08T20:17:40;9.6777;51.4137
43414;DHT22;73638;49.676;8.606;2024-03-08T20:22:46;9.4907;52.1202
43414;DHT22;73638;49.676;8.606;2024-03-08T20:27:53;9.3358;51.8257
43414;DHT22;73638;49.676;8.606;2024-03-08T20:32:59;9.4133;52.2683
43414;DHT22;73638;49.676;8.606;2024-03-08T20:38:05;9.3492;51.7647
43414;DHT22;73638;49.676;8.606;2024-03-08T20:43:11;9.3839;51.9112
43414;DHT22;73638;49.676;8.606;2024-03-08T20:48:18;9.4747;51.9493
43414;DHT22;73638;49.676;8.606;2024-03-08T20:53:24;9.3492;51.8502
43414;DHT22;73638;49.676;8.606;2024-03-08T20:58:31;9.4133;51.6411
43414;DHT22;73638;49.676;8.606;2024-03-08T21:03:38;9.5121;51.519
43414;DHT22;73638;49.676;8.606;2024-03-08T21:08:45;9.448;51.7281
43414;DHT22;73638;49.676;8.606;2024-03-08T21:13:51;9.2103;51.6899
43414;DHT22;73638;49.676;8.606;2024-03-08T21:18:58;9.2878;51.7647
43414;DHT22;73638;49.676;8.606;2024-03-08T21:24:04;9.1676;51.9112
43414;DHT22;73638;49.676;8.606;2024-03-08T21:29:11;9.1836;51.8135
43414;DHT22;73638;49.676;8.606;2024-03-08T21:34:17;9.1756;51.8257
43414;DHT22;73638;49.676;8.606;2024-03-08T21:39:24;9.1543;51.9371
43414;DHT22;73638;49.676;8.606;2024-03-08T21:44:30;9.1676;51.6167
43414;DHT22;73638;49.676;8.606;2024-03-08T21:49:37;9.1062;51.4946
43414;DHT22;73638;49.676;8.606;2024-03-08T21:54:44;9.1756;52.0348
43414;DHT22;73638;49.676;8.606;2024-03-08T21:59:50;9.1676;51.9112
43414;DHT22;73638;49.676;8.606;2024-03-08T22:04:57;9.0021;51.9493
43414;DHT22;73638;49.676;8.606;2024-03-08T22:10:05;9.1676;52.4651
43414;DHT22;73638;49.676;8.606;2024-03-08T22:15:11;9.0074;52.5261
43414;DHT22;73638;49.676;8.606;2024-03-08T22:20:17;9.0581;52.3293
43414;DHT22;73638;49.676;8.606;2024-03-08T22:25:24;8.8258;52.2316
43414;DHT22;73638;49.676;8.606;2024-03-08T22:30:30;8.7083;53.2998
43414;DHT22;73638;49.676;8.606;2024-03-08T22:35:37;8.7297;53.4356
43414;DHT22;73638;49.676;8.606;2024-03-08T22:40:43;8.492;54.1238
43414;DHT22;73638;49.676;8.606;2024-03-08T22:45:50;8.6095;53.7179
43414;DHT22;73638;49.676;8.606;2024-03-08T22:50:56;8.5134;53.9025
43414;DHT22;73638;49.676;8.606;2024-03-08T22:56:03;8.5828;54.0124
43414;DHT22;73638;49.676;8.606;2024-03-08T23:01:10;8.5321;54.6151
43414;DHT22;73638;49.676;8.606;2024-03-08T23:06:16;8.5882;54.5052
43414;DHT22;73638;49.676;8.606;2024-03-08T23:11:24;8.4493;54.8608
43414;DHT22;73638;49.676;8.606;2024-03-08T23:16:30;8.225;55.1553
43414;DHT22;73638;49.676;8.606;2024-03-08T23:21:36;8.3024;55.0088
43414;DHT22;73638;49.676;8.606;2024-03-08T23:26:43;8.2544;55.2789
43414;DHT22;73638;49.676;8.606;2024-03-08T23:31:49;8.0728;55.5077
43414;DHT22;73638;49.676;8.606;2024-03-08T23:36:56;8.0568;55.9869
43414;DHT22;73638;49.676;8.606;2024-03-08T23:42:03;8.1769;55.9625
43414;DHT22;73638;49.676;8.606;2024-03-08T23:47:10;7.974;55.5947
43414;DHT22;73638;49.676;8.606;2024-03-08T23:52:15;7.8752;55.9258
43414;DHT22;73638;49.676;8.606;2024-03-08T23:57:22;7.7657;56.6018
